Time;durP1;ratioP1;P1;durP2;ratioP2;P2;SDS_P1;SDS_P2;PMS_P1;PMS_P2;Temp;Humidity;BMP_temperature;BMP_pressure;BME280_temperature;BME280_humidity;BME280_pressure;Samples;Min_cycle;Max_cycle;Signal;HPM_P1;HPM_P2
2024/02/18 00:01:40;;;;;;;;;;;;;;;;;;5049371;28;20434;-70
2024/02/18 00:04:06;;;;;;;;;;;;;;;;;;5049006;28;19928;-70
2024/02/18 00:06:33;;;;;;;;;;;;;;;;;;5049808;28;19933;-70
2024/02/18 00:09:00;;;;;;;;;;;;;;;;;;5049472;28;20039;-70
2024/02/18 00:11:27;;;;;;;;;;;;;;;;;;5055585;28;19951;-70
2024/02/18 00:13:55;;;;;;;;;;;;;;;;;;5048257;28;20012;-70
2024/02/18 00:16:22;;;;;;;;;;;;;;;;;;5050095;28;20304;-70
2024/02/18 00:18:49;;;;;;;;;;;;;;;;;;5056571;28;19976;-70
2024/02/18 00:21:16;;;;;;;;;;;;;;;;;;5049566;28;19952;-70
2024/02/18 00:23:43;;;;;;;;;;;;;;;;;;5049555;28;19959;-70
2024/02/18 00:26:10;;;;;;;;;;;;;;;;;;5048609;28;19929;-71
2024/02/18 00:28:37;;;;;;;;;;;;;;;;;;5049953;28;20392;-70
2024/02/18 00:31:04;;;;;;;;;;;;;;;;;;5045450;28;20004;-70
2024/02/18 00:33:31;;;;;;;;;;;;;;;;;;5050238;28;19972;-70
2024/02/18 00:35:58;;;;;;;;;;;;;;;;;;5047978;28;19982;-70
2024/02/18 00:38:27;;;;;;;;;;;;;;;;;;5049025;28;19934;-71
2024/02/18 00:40:54;;;;;;;;;;;;;;;;;;5048293;28;19932;-71
2024/02/18 00:43:21;;;;;;;;;;;;;;;;;;5049749;28;19960;-71
2024/02/18 00:45:48;;;;;;;;;;;;;;;;;;5048038;28;20012;-71
2024/02/18 00:48:16;;;;;;;;;;;;;;;;;;5048212;28;19928;-71
2024/02/18 00:50:43;;;;;;;;;;;;;;;;;;5035715;28;19939;-71
2024/02/18 00:53:10;;;;;;;;;;;;;;;;;;5049394;28;20118;-71
2024/02/18 00:55:42;;;;;;;;;;;;;;;;;;5041697;28;19986;-70
2024/02/18 00:58:09;;;;;;;;;;;;;;;;;;5048050;28;20356;-71
2024/02/18 01:00:36;;;;;;;;;;;;;;;;;;5047714;28;19948;-70
2024/02/18 01:03:03;;;;;;;;;;;;;;;;;;5043428;28;20023;-70
2024/02/18 01:05:30;;;;;;;;;;;;;;;;;;5047960;28;19928;-70
2024/02/18 01:07:57;;;;;;;;;;;;;;;;;;5048656;28;19929;-71
2024/02/18 01:10:24;;;;;;;;;;;;;;;;;;5048841;28;20019;-70
2024/02/18 01:12:51;;;;;;;;;;;;;;;;;;5048354;28;20453;-70
2024/02/18 01:15:18;;;;;;;;;;;;;;;;;;5048074;28;20059;-70
2024/02/18 01:17:45;;;;;;;;;;;;;;;;;;5048084;28;20400;-71
2024/02/18 01:20:12;;;;;;;;;;;;;;;;;;5047972;28;20008;-71
2024/02/18 01:22:39;;;;;;;;;;;;;;;;;;5047777;28;20026;-70
2024/02/18 01:25:08;;;;;;;;;;;;;;;;;;5044925;28;19929;-70
2024/02/18 01:27:35;;;;;;;;;;;;;;;;;;5047998;28;19986;-70
2024/02/18 01:30:02;;;;;;;;;;;;;;;;;;5048044;28;20011;-70
2024/02/18 01:32:29;;;;;;;;;;;;;;;;;;5048590;28;20027;-69
2024/02/18 01:34:56;;;;;;;;;;;;;;;;;;5047784;28;19928;-70
2024/02/18 01:37:23;;;;;;;;;;;;;;;;;;5047073;28;20019;-70
2024/02/18 01:39:50;;;;;;;;;;;;;;;;;;5050685;28;19932;-70
2024/02/18 01:42:17;;;;;;;;;;;;;;;;;;5047507;28;20509;-70
2024/02/18 01:44:44;;;;;;;;;;;;;;;;;;5055149;28;19929;-70
2024/02/18 01:47:11;;;;;;;;;;;;;;;;;;5048597;28;19967;-71
2024/02/18 01:49:38;;;;;;;;;;;;;;;;;;5047683;28;19928;-71
2024/02/18 01:52:05;;;;;;;;;;;;;;;;;;5048104;28;20023;-71
2024/02/18 01:54:33;;;;;;;;;;;;;;;;;;5044904;28;19972;-71
2024/02/18 01:57:00;;;;;;;;;;;;;;;;;;5061440;28;19932;-71
2024/02/18 01:59:27;;;;;;;;;;;;;;;;;;5051189;28;19928;-72
2024/02/18 02:01:54;;;;;;;;;;;;;;;;;;5047941;28;19935;-72
2024/02/18 02:04:21;;;;;;;;;;;;;;;;;;5046799;28;20090;-72
2024/02/18 02:06:49;;;;;;;;;;;;;;;;;;5047840;28;20023;-72
2024/02/18 02:09:16;;;;;;;;;;;;;;;;;;5047680;28;19932;-71
2024/02/18 02:11:43;;;;;;;;;;;;;;;;;;5045203;28;19972;-71
2024/02/18 02:14:10;;;;;;;;;;;;;;;;;;5052018;28;19933;-71
2024/02/18 02:16:37;;;;;;;;;;;;;;;;;;5051589;28;19929;-72
2024/02/18 02:19:04;;;;;;;;;;;;;;;;;;5051018;28;19928;-72
2024/02/18 02:21:31;;;;;;;;;;;;;;;;;;5051539;28;20012;-71
2024/02/18 02:23:58;;;;;;;;;;;;;;;;;;5051457;28;20015;-72
2024/02/18 02:26:25;;;;;;;;;;;;;;;;;;5052273;28;20304;-71
2024/02/18 02:28:52;;;;;;;;;;;;;;;;;;5051570;28;19971;-71
2024/02/18 02:31:19;;;;;;;;;;;;;;;;;;5055122;28;20367;-71
2024/02/18 02:33:46;;;;;;;;;;;;;;;;;;5051134;28;19933;-71
2024/02/18 02:36:13;;;;;;;;;;;;;;;;;;5031600;28;19998;-71
2024/02/18 02:38:41;;;;;;;;;;;;;;;;;;5048940;28;19975;-71
2024/02/18 02:41:08;;;;;;;;;;;;;;;;;;5050723;28;19998;-70
2024/02/18 02:43:35;;;;;;;;;;;;;;;;;;5050390;28;19936;-70
2024/02/18 02:46:02;;;;;;;;;;;;;;;;;;5049072;28;19928;-71
2024/02/18 02:48:29;;;;;;;;;;;;;;;;;;5050726;28;19929;-71
2024/02/18 02:50:56;;;;;;;;;;;;;;;;;;5050919;28;19937;-71
2024/02/18 02:53:23;;;;;;;;;;;;;;;;;;5050776;28;20374;-71
2024/02/18 02:55:50;;;;;;;;;;;;;;;;;;5051401;28;20016;-71
2024/02/18 02:58:17;;;;;;;;;;;;;;;;;;5049976;28;19929;-71
2024/02/18 03:00:44;;;;;;;;;;;;;;;;;;5050392;28;20045;-71
2024/02/18 03:03:11;;;;;;;;;;;;;;;;;;5049881;28;19928;-71
2024/02/18 03:05:38;;;;;;;;;;;;;;;;;;5051117;28;20011;-71
2024/02/18 03:08:05;;;;;;;;;;;;;;;;;;5050729;28;20383;-71
2024/02/18 03:10:37;;;;;;;;;;;;;;;;;;5051234;28;19929;-71
2024/02/18 03:13:04;;;;;;;;;;;;;;;;;;5050233;28;20396;-71
2024/02/18 03:15:31;;;;;;;;;;;;;;;;;;5050399;28;19932;-71
2024/02/18 03:17:58;;;;;;;;;;;;;;;;;;5050040;28;20461;-72
2024/02/18 03:20:25;;;;;;;;;;;;;;;;;;5048317;28;20024;-71
2024/02/18 03:22:52;;;;;;;;;;;;;;;;;;5049988;28;20024;-72
2024/02/18 03:25:20;;;;;;;;;;;;;;;;;;5051549;28;19967;-71
2024/02/18 03:27:47;;;;;;;;;;;;;;;;;;5050454;28;19929;-72
2024/02/18 03:30:16;;;;;;;;;;;;;;;;;;5050279;28;19929;-71
2024/02/18 03:32:43;;;;;;;;;;;;;;;;;;5049694;28;20342;-71
2024/02/18 03:35:10;;;;;;;;;;;;;;;;;;5050251;28;20038;-71
2024/02/18 03:37:37;;;;;;;;;;;;;;;;;;5046382;28;20296;-71
2024/02/18 03:40:05;;;;;;;;;;;;;;;;;;5050648;28;19935;-71
2024/02/18 03:42:32;;;;;;;;;;;;;;;;;;5047458;28;19929;-71
2024/02/18 03:44:59;;;;;;;;;;;;;;;;;;5038035;28;19960;-71
2024/02/18 03:47:26;;;;;;;;;;;;;;;;;;5049912;28;20040;-71
2024/02/18 03:49:53;;;;;;;;;;;;;;;;;;5049200;28;19933;-71
2024/02/18 03:52:20;;;;;;;;;;;;;;;;;;5049711;28;19932;-71
2024/02/18 03:54:47;;;;;;;;;;;;;;;;;;5061975;28;20014;-71
2024/02/18 03:57:14;;;;;;;;;;;;;;;;;;5054727;28;19929;-71
2024/02/18 03:59:41;;;;;;;;;;;;;;;;;;5050653;28;19936;-71
2024/02/18 04:02:08;;;;;;;;;;;;;;;;;;5050083;28;20026;-71
2024/02/18 04:04:35;;;;;;;;;;;;;;;;;;5049447;28;19929;-71
2024/02/18 04:07:02;;;;;;;;;;;;;;;;;;5049571;28;20015;-71
2024/02/18 04:09:29;;;;;;;;;;;;;;;;;;5048126;28;20011;-71
2024/02/18 04:11:57;;;;;;;;;;;;;;;;;;5041393;28;19936;-71
2024/02/18 04:14:24;;;;;;;;;;;;;;;;;;5049841;28;19929;-71
2024/02/18 04:16:53;;;;;;;;;;;;;;;;;;5051599;28;20475;-71
2024/02/18 04:19:20;;;;;;;;;;;;;;;;;;5049845;28;19933;-72
2024/02/18 04:21:47;;;;;;;;;;;;;;;;;;5047707;28;19935;-72
2024/02/18 04:24:16;;;;;;;;;;;;;;;;;;5048081;28;20325;-71
2024/02/18 04:26:43;;;;;;;;;;;;;;;;;;5050022;28;19935;-71
2024/02/18 04:29:10;;;;;;;;;;;;;;;;;;5041807;28;19929;-71
2024/02/18 04:31:37;;;;;;;;;;;;;;;;;;5048390;28;19951;-71
2024/02/18 04:34:04;;;;;;;;;;;;;;;;;;5049055;28;19968;-71
2024/02/18 04:36:31;;;;;;;;;;;;;;;;;;5048929;28;20714;-71
2024/02/18 04:38:59;;;;;;;;;;;;;;;;;;5049670;28;20015;-71
2024/02/18 04:41:26;;;;;;;;;;;;;;;;;;5048221;28;19929;-71
2024/02/18 04:43:53;;;;;;;;;;;;;;;;;;5047658;28;20372;-70
2024/02/18 04:46:20;;;;;;;;;;;;;;;;;;5035439;28;19935;-71
2024/02/18 04:48:47;;;;;;;;;;;;;;;;;;5047605;28;19929;-70
2024/02/18 04:51:14;;;;;;;;;;;;;;;;;;5047925;28;20003;-71
2024/02/18 04:53:41;;;;;;;;;;;;;;;;;;5049078;28;19933;-71
2024/02/18 04:56:08;;;;;;;;;;;;;;;;;;5048520;28;19928;-71
2024/02/18 04:58:35;;;;;;;;;;;;;;;;;;5049466;28;19951;-70
2024/02/18 05:01:03;;;;;;;;;;;;;;;;;;5045424;28;19936;-72
2024/02/18 05:03:30;;;;;;;;;;;;;;;;;;5029648;28;19995;-71
2024/02/18 05:05:57;;;;;;;;;;;;;;;;;;5042783;28;20023;-71
2024/02/18 05:08:24;;;;;;;;;;;;;;;;;;5049052;28;20451;-71
2024/02/18 05:10:51;;;;;;;;;;;;;;;;;;5049199;28;20027;-71
2024/02/18 05:13:18;;;;;;;;;;;;;;;;;;5047753;28;19935;-72
2024/02/18 05:15:46;;;;;;;;;;;;;;;;;;5048455;28;20027;-72
2024/02/18 05:18:13;;;;;;;;;;;;;;;;;;5050470;28;19936;-72
2024/02/18 05:20:40;;;;;;;;;;;;;;;;;;5031878;28;19933;-71
2024/02/18 05:23:07;;;;;;;;;;;;;;;;;;5046779;28;19935;-72
2024/02/18 05:25:33;;;;;;;;;;;;;;;;;;5048932;28;19994;-71
2024/02/18 05:28:00;;;;;;;;;;;;;;;;;;5049258;28;19945;-73
2024/02/18 05:30:27;;;;;;;;;;;;;;;;;;5048061;28;19956;-72
2024/02/18 05:32:54;;;;;;;;;;;;;;;;;;5046953;28;20031;-73
2024/02/18 05:35:21;;;;;;;;;;;;;;;;;;5058534;28;19976;-72
2024/02/18 05:37:48;;;;;;;;;;;;;;;;;;5046172;28;20015;-73
2024/02/18 05:40:15;;;;;;;;;;;;;;;;;;5048901;28;19929;-73
2024/02/18 05:42:42;;;;;;;;;;;;;;;;;;5047937;28;19929;-72
2024/02/18 05:45:09;;;;;;;;;;;;;;;;;;5047982;28;19932;-70
2024/02/18 05:47:36;;;;;;;;;;;;;;;;;;5049369;28;20481;-70
2024/02/18 05:50:03;;;;;;;;;;;;;;;;;;5050873;28;19972;-71
2024/02/18 05:52:30;;;;;;;;;;;;;;;;;;5047520;28;19933;-71
2024/02/18 05:54:57;;;;;;;;;;;;;;;;;;5041605;28;20047;-70
2024/02/18 05:57:24;;;;;;;;;;;;;;;;;;5051141;28;20019;-70
2024/02/18 05:59:51;;;;;;;;;;;;;;;;;;5032495;28;20368;-70
2024/02/18 06:02:18;;;;;;;;;;;;;;;;;;5041945;28;20269;-70
2024/02/18 06:04:45;;;;;;;;;;;;;;;;;;5052502;28;20376;-71
2024/02/18 06:07:12;;;;;;;;;;;;;;;;;;5059798;28;19932;-70
2024/02/18 06:09:39;;;;;;;;;;;;;;;;;;5046249;28;19932;-70
2024/02/18 06:12:06;;;;;;;;;;;;;;;;;;5040617;28;19928;-70
2024/02/18 06:14:33;;;;;;;;;;;;;;;;;;5051194;28;20012;-71
2024/02/18 06:17:00;;;;;;;;;;;;;;;;;;5052589;28;19975;-71
2024/02/18 06:19:27;;;;;;;;;;;;;;;;;;5046378;28;19928;-71
2024/02/18 06:21:54;;;;;;;;;;;;;;;;;;5052112;28;19991;-71
2024/02/18 06:24:27;;;;;;;;;;;;;;;;;;5062749;28;20022;-71
2024/02/18 06:26:54;;;;;;;;;;;;;;;;;;5055828;28;19969;-71
2024/02/18 06:29:21;;;;;;;;;;;;;;;;;;5035804;28;20035;-71
2024/02/18 06:31:48;;;;;;;;;;;;;;;;;;5053214;28;19935;-70
2024/02/18 06:34:15;;;;;;;;;;;;;;;;;;5051906;28;20015;-70
2024/02/18 06:36:42;;;;;;;;;;;;;;;;;;5051401;28;19929;-71
2024/02/18 06:39:09;;;;;;;;;;;;;;;;;;5049420;28;20011;-71
2024/02/18 06:41:36;;;;;;;;;;;;;;;;;;5069471;28;19976;-70
2024/02/18 06:44:03;;;;;;;;;;;;;;;;;;5052561;28;20031;-71
2024/02/18 06:46:30;;;;;;;;;;;;;;;;;;5049081;28;20388;-70
2024/02/18 06:48:57;;;;;;;;;;;;;;;;;;5051629;28;20023;-70
2024/02/18 06:51:24;;;;;;;;;;;;;;;;;;5049848;28;19935;-71
2024/02/18 06:53:52;;;;;;;;;;;;;;;;;;5044410;28;20042;-70
2024/02/18 06:56:19;;;;;;;;;;;;;;;;;;5047096;28;20422;-71
2024/02/18 06:58:46;;;;;;;;;;;;;;;;;;5051207;28;20019;-71
2024/02/18 07:01:14;;;;;;;;;;;;;;;;;;5048958;28;19972;-71
2024/02/18 07:03:41;;;;;;;;;;;;;;;;;;5050602;28;19929;-71
2024/02/18 07:06:08;;;;;;;;;;;;;;;;;;5051101;28;20452;-71
2024/02/18 07:08:35;;;;;;;;;;;;;;;;;;5050828;28;19963;-70
2024/02/18 07:11:02;;;;;;;;;;;;;;;;;;5051089;28;20350;-73
2024/02/18 07:13:29;;;;;;;;;;;;;;;;;;5070975;28;19933;-72
2024/02/18 07:15:56;;;;;;;;;;;;;;;;;;5038154;28;20039;-71
2024/02/18 07:18:23;;;;;;;;;;;;;;;;;;5046526;28;19929;-72
2024/02/18 07:20:50;;;;;;;;;;;;;;;;;;5048538;28;20445;-71
2024/02/18 07:23:17;;;;;;;;;;;;;;;;;;5049938;28;19929;-71
2024/02/18 07:25:45;;;;;;;;;;;;;;;;;;5050577;28;19983;-73
2024/02/18 07:28:12;;;;;;;;;;;;;;;;;;5054977;28;20326;-72
2024/02/18 07:30:39;;;;;;;;;;;;;;;;;;5063385;28;19929;-73
2024/02/18 07:33:06;;;;;;;;;;;;;;;;;;5050527;28;19929;-73
2024/02/18 07:35:33;;;;;;;;;;;;;;;;;;5053294;28;20015;-72
2024/02/18 07:38:00;;;;;;;;;;;;;;;;;;5045988;28;20008;-72
2024/02/18 07:40:27;;;;;;;;;;;;;;;;;;5056846;28;20410;-72
2024/02/18 07:42:54;;;;;;;;;;;;;;;;;;5070244;28;19928;-73
2024/02/18 07:45:21;;;;;;;;;;;;;;;;;;5063797;28;20401;-72
2024/02/18 07:47:48;;;;;;;;;;;;;;;;;;5049594;28;19935;-72
2024/02/18 07:50:15;;;;;;;;;;;;;;;;;;5049387;28;20355;-73
2024/02/18 07:52:42;;;;;;;;;;;;;;;;;;5045504;28;20020;-73
2024/02/18 07:55:09;;;;;;;;;;;;;;;;;;5048599;28;19929;-73
2024/02/18 07:57:36;;;;;;;;;;;;;;;;;;5048511;28;20469;-72
2024/02/18 08:00:03;;;;;;;;;;;;;;;;;;5050125;28;19969;-72
2024/02/18 08:02:30;;;;;;;;;;;;;;;;;;5050175;28;20354;-72
2024/02/18 08:04:58;;;;;;;;;;;;;;;;;;5056996;28;20325;-72
2024/02/18 08:07:25;;;;;;;;;;;;;;;;;;5055784;28;19936;-72
2024/02/18 08:09:52;;;;;;;;;;;;;;;;;;5041810;28;19940;-72
2024/02/18 08:12:19;;;;;;;;;;;;;;;;;;5047778;28;19928;-72
2024/02/18 08:14:46;;;;;;;;;;;;;;;;;;5051369;28;20003;-71
2024/02/18 08:17:13;;;;;;;;;;;;;;;;;;5048478;28;19932;-71
2024/02/18 08:19:40;;;;;;;;;;;;;;;;;;5049854;28;20043;-72
2024/02/18 08:22:07;;;;;;;;;;;;;;;;;;5049621;28;20058;-70
2024/02/18 08:24:34;;;;;;;;;;;;;;;;;;5048986;28;20297;-73
2024/02/18 08:27:01;;;;;;;;;;;;;;;;;;5044916;28;19975;-72
2024/02/18 08:29:28;;;;;;;;;;;;;;;;;;5049374;28;19928;-71
2024/02/18 08:31:57;;;;;;;;;;;;;;;;;;5047023;28;20422;-71
2024/02/18 08:34:24;;;;;;;;;;;;;;;;;;5047553;28;20362;-72
2024/02/18 08:36:51;;;;;;;;;;;;;;;;;;5047259;28;19936;-72
2024/02/18 08:39:18;;;;;;;;;;;;;;;;;;5038964;28;20031;-72
2024/02/18 08:41:45;;;;;;;;;;;;;;;;;;5044630;28;20007;-72
2024/02/18 08:44:14;;;;;;;;;;;;;;;;;;5045387;28;19937;-72
2024/02/18 08:46:41;;;;;;;;;;;;;;;;;;5047932;28;19929;-72
2024/02/18 08:49:08;;;;;;;;;;;;;;;;;;5047149;28;20285;-73
2024/02/18 08:51:38;;;;;;;;;;;;;;;;;;5049229;28;19968;-73
2024/02/18 08:54:06;;;;;;;;;;;;;;;;;;5045591;28;19932;-73
2024/02/18 08:56:33;;;;;;;;;;;;;;;;;;5040324;28;19936;-73
2024/02/18 08:59:00;;;;;;;;;;;;;;;;;;5045033;28;19929;-73
2024/02/18 09:01:27;;;;;;;;;;;;;;;;;;5039525;28;19929;-72
2024/02/18 09:03:54;;;;;;;;;;;;;;;;;;5046087;28;19951;-72
2024/02/18 09:06:21;;;;;;;;;;;;;;;;;;5047058;28;19932;-74
2024/02/18 09:08:48;;;;;;;;;;;;;;;;;;5044930;28;20419;-73
2024/02/18 09:11:15;;;;;;;;;;;;;;;;;;5043278;28;19929;-73
2024/02/18 09:13:43;;;;;;;;;;;;;;;;;;5035348;28;19932;-73
2024/02/18 09:16:10;;;;;;;;;;;;;;;;;;5049782;28;19935;-73
2024/02/18 09:18:37;;;;;;;;;;;;;;;;;;5047635;28;20028;-72
2024/02/18 09:21:05;;;;;;;;;;;;;;;;;;5047431;28;20015;-72
2024/02/18 09:23:32;;;;;;;;;;;;;;;;;;5041995;28;19936;-73
2024/02/18 09:25:59;;;;;;;;;;;;;;;;;;5049555;28;20388;-73
2024/02/18 09:28:26;;;;;;;;;;;;;;;;;;5053287;28;19940;-72
2024/02/18 09:30:55;;;;;;;;;;;;;;;;;;5054603;28;20392;-73
2024/02/18 09:33:22;;;;;;;;;;;;;;;;;;5054211;28;20050;-73
2024/02/18 09:35:50;;;;;;;;;;;;;;;;;;5053160;28;19971;-75
2024/02/18 09:38:17;;;;;;;;;;;;;;;;;;5055825;28;19928;-73
2024/02/18 09:40:44;;;;;;;;;;;;;;;;;;5055587;28;19928;-73
2024/02/18 09:43:11;;;;;;;;;;;;;;;;;;5053744;28;20044;-72
2024/02/18 09:45:38;;;;;;;;;;;;;;;;;;5053593;28;19998;-73
2024/02/18 09:48:05;;;;;;;;;;;;;;;;;;5052613;28;19929;-73
2024/02/18 09:50:33;;;;;;;;;;;;;;;;;;5052801;28;19935;-73
2024/02/18 09:53:02;;;;;;;;;;;;;;;;;;5054450;28;19932;-72
2024/02/18 09:55:29;;;;;;;;;;;;;;;;;;5052914;28;19932;-73
2024/02/18 09:57:56;;;;;;;;;;;;;;;;;;5049602;28;20586;-72
2024/02/18 10:00:25;;;;;;;;;;;;;;;;;;5048115;28;19933;-73
2024/02/18 10:02:52;;;;;;;;;;;;;;;;;;5043776;28;19929;-74
2024/02/18 10:05:19;;;;;;;;;;;;;;;;;;5052793;28;19936;-73
2024/02/18 10:07:46;;;;;;;;;;;;;;;;;;5036211;28;19975;-73
2024/02/18 10:10:13;;;;;;;;;;;;;;;;;;5046521;28;19955;-74
2024/02/18 10:12:41;;;;;;;;;;;;;;;;;;5051809;28;19928;-72
2024/02/18 10:15:08;;;;;;;;;;;;;;;;;;5044980;28;19932;-74
2024/02/18 10:17:35;;;;;;;;;;;;;;;;;;5041255;28;19929;-75
2024/02/18 10:20:02;;;;;;;;;;;;;;;;;;5043725;28;19994;-73
2024/02/18 10:22:29;;;;;;;;;;;;;;;;;;5047238;28;20372;-71
2024/02/18 10:24:56;;;;;;;;;;;;;;;;;;5053565;28;20449;-73
2024/02/18 10:27:23;;;;;;;;;;;;;;;;;;5048477;28;20015;-72
2024/02/18 10:29:50;;;;;;;;;;;;;;;;;;5055707;28;19928;-73
2024/02/18 10:32:17;;;;;;;;;;;;;;;;;;5049529;28;20273;-75
2024/02/18 10:34:45;;;;;;;;;;;;;;;;;;5042204;28;19972;-74
2024/02/18 10:37:12;;;;;;;;;;;;;;;;;;5047455;28;19964;-75
2024/02/18 10:39:39;;;;;;;;;;;;;;;;;;5043985;28;20027;-74
2024/02/18 10:42:06;;;;;;;;;;;;;;;;;;5044310;28;20368;-74
2024/02/18 10:44:33;;;;;;;;;;;;;;;;;;5043683;28;20468;-73
2024/02/18 10:47:00;;;;;;;;;;;;;;;;;;5043859;28;19986;-74
2024/02/18 10:49:27;;;;;;;;;;;;;;;;;;5041818;28;19998;-74
2024/02/18 10:51:54;;;;;;;;;;;;;;;;;;5046603;28;20369;-75
2024/02/18 10:54:20;;;;;;;;;;;;;;;;;;5036609;28;20387;-74
2024/02/18 10:56:47;;;;;;;;;;;;;;;;;;5043242;28;19933;-72
2024/02/18 10:59:14;;;;;;;;;;;;;;;;;;5041043;28;19928;-75
2024/02/18 11:01:41;;;;;;;;;;;;;;;;;;5041098;28;20349;-75
2024/02/18 11:04:09;;;;;;;;;;;;;;;;;;5042780;28;19960;-77
2024/02/18 11:06:36;;;;;;;;;;;;;;;;;;5044623;28;19928;-75
2024/02/18 11:09:08;;;;;;;;;;;;;;;;;;5030918;28;19933;-77
2024/02/18 11:11:35;;;;;;;;;;;;;;;;;;5037820;28;19932;-77
2024/02/18 11:14:02;;;;;;;;;;;;;;;;;;5039489;28;20396;-76
2024/02/18 11:16:29;;;;;;;;;;;;;;;;;;5039717;28;20006;-77
2024/02/18 11:18:56;;;;;;;;;;;;;;;;;;5045364;28;19935;-76
2024/02/18 11:21:23;;;;;;;;;;;;;;;;;;5044507;28;19928;-77
2024/02/18 11:23:50;;;;;;;;;;;;;;;;;;5038468;28;20483;-77
2024/02/18 11:26:17;;;;;;;;;;;;;;;;;;5043193;28;19929;-77
2024/02/18 11:28:44;;;;;;;;;;;;;;;;;;5046709;28;20444;-78
2024/02/18 11:31:12;;;;;;;;;;;;;;;;;;5044499;28;20017;-76
2024/02/18 11:33:39;;;;;;;;;;;;;;;;;;5046477;28;20304;-77
2024/02/18 11:36:06;;;;;;;;;;;;;;;;;;5049107;28;19972;-76
2024/02/18 11:38:33;;;;;;;;;;;;;;;;;;5047129;28;19939;-78
2024/02/18 11:41:00;;;;;;;;;;;;;;;;;;5054158;28;20023;-75
2024/02/18 11:43:27;;;;;;;;;;;;;;;;;;5044532;28;20569;-75
2024/02/18 11:45:55;;;;;;;;;;;;;;;;;;5042836;28;19932;-77
2024/02/18 11:48:22;;;;;;;;;;;;;;;;;;5044771;28;20414;-78
2024/02/18 11:50:49;;;;;;;;;;;;;;;;;;5032956;28;20392;-77
2024/02/18 11:53:16;;;;;;;;;;;;;;;;;;5040613;28;19935;-77
2024/02/18 11:55:43;;;;;;;;;;;;;;;;;;5036257;28;19937;-77
2024/02/18 11:58:10;;;;;;;;;;;;;;;;;;5045623;28;19932;-76
2024/02/18 12:00:37;;;;;;;;;;;;;;;;;;5040941;28;20392;-78
2024/02/18 12:03:04;;;;;;;;;;;;;;;;;;5047214;28;19929;-78
2024/02/18 12:05:31;;;;;;;;;;;;;;;;;;5044800;28;20016;-76
2024/02/18 12:07:58;;;;;;;;;;;;;;;;;;5043784;28;20043;-77
2024/02/18 12:10:27;;;;;;;;;;;;;;;;;;5045546;28;19964;-77
2024/02/18 12:12:54;;;;;;;;;;;;;;;;;;5043384;28;19932;-76
2024/02/18 12:15:22;;;;;;;;;;;;;;;;;;5046923;28;19998;-77
2024/02/18 12:17:52;;;;;;;;;;;;;;;;;;5044581;28;19929;-77
2024/02/18 12:20:19;;;;;;;;;;;;;;;;;;5046700;28;19929;-75
2024/02/18 12:22:47;;;;;;;;;;;;;;;;;;5048243;28;19929;-74
2024/02/18 12:25:15;;;;;;;;;;;;;;;;;;5045416;28;20410;-75
2024/02/18 12:27:42;;;;;;;;;;;;;;;;;;5047573;28;19936;-78
2024/02/18 12:30:10;;;;;;;;;;;;;;;;;;5046623;28;19990;-77
2024/02/18 12:32:37;;;;;;;;;;;;;;;;;;5045844;28;19932;-77
2024/02/18 12:35:04;;;;;;;;;;;;;;;;;;5046688;28;20006;-78
2024/02/18 12:37:32;;;;;;;;;;;;;;;;;;5038749;28;19928;-76
2024/02/18 12:40:00;;;;;;;;;;;;;;;;;;5044552;28;20002;-76
2024/02/18 12:42:27;;;;;;;;;;;;;;;;;;5047195;28;20383;-74
2024/02/18 12:44:54;;;;;;;;;;;;;;;;;;5031753;28;19939;-76
2024/02/18 12:47:21;;;;;;;;;;;;;;;;;;5042323;28;19968;-77
2024/02/18 12:49:48;;;;;;;;;;;;;;;;;;5043511;28;19933;-79
2024/02/18 12:52:15;;;;;;;;;;;;;;;;;;5040972;28;19952;-78
2024/02/18 12:54:42;;;;;;;;;;;;;;;;;;5031826;28;19958;-78
2024/02/18 12:57:09;;;;;;;;;;;;;;;;;;5032636;28;20027;-79
2024/02/18 12:59:36;;;;;;;;;;;;;;;;;;5048553;28;19933;-80
2024/02/18 13:02:03;;;;;;;;;;;;;;;;;;5041029;28;19948;-79
2024/02/18 13:04:30;;;;;;;;;;;;;;;;;;5037127;28;19935;-80
2024/02/18 13:06:59;;;;;;;;;;;;;;;;;;5047668;28;19932;-80
2024/02/18 13:09:26;;;;;;;;;;;;;;;;;;5051233;28;20410;-78
2024/02/18 13:11:53;;;;;;;;;;;;;;;;;;5047018;28;20357;-79
2024/02/18 13:14:20;;;;;;;;;;;;;;;;;;5044011;28;19935;-77
2024/02/18 13:16:47;;;;;;;;;;;;;;;;;;5041188;28;20039;-78
2024/02/18 13:19:14;;;;;;;;;;;;;;;;;;5048418;28;19933;-78
2024/02/18 13:21:41;;;;;;;;;;;;;;;;;;5031909;28;19929;-77
2024/02/18 13:24:08;;;;;;;;;;;;;;;;;;5032000;28;19929;-77
2024/02/18 13:26:35;;;;;;;;;;;;;;;;;;5037847;28;19929;-76
2024/02/18 13:29:02;;;;;;;;;;;;;;;;;;5050790;28;19968;-77
2024/02/18 13:31:29;;;;;;;;;;;;;;;;;;5047040;28;20027;-77
2024/02/18 13:33:56;;;;;;;;;;;;;;;;;;5046850;28;19985;-80
2024/02/18 13:36:23;;;;;;;;;;;;;;;;;;5035110;28;19932;-75
2024/02/18 13:38:50;;;;;;;;;;;;;;;;;;5045980;28;20002;-79
2024/02/18 13:41:18;;;;;;;;;;;;;;;;;;5048650;28;19936;-76
2024/02/18 13:43:45;;;;;;;;;;;;;;;;;;5041221;28;19937;-77
2024/02/18 13:46:12;;;;;;;;;;;;;;;;;;5042492;28;19928;-75
2024/02/18 13:48:39;;;;;;;;;;;;;;;;;;5047671;28;20007;-76
2024/02/18 13:51:06;;;;;;;;;;;;;;;;;;5036316;28;20019;-74
2024/02/18 13:53:34;;;;;;;;;;;;;;;;;;5039363;28;19929;-76
2024/02/18 13:56:01;;;;;;;;;;;;;;;;;;5037597;28;19929;-74
2024/02/18 13:58:29;;;;;;;;;;;;;;;;;;5036558;28;19939;-76
2024/02/18 14:00:56;;;;;;;;;;;;;;;;;;5042707;28;19929;-77
2024/02/18 14:03:23;;;;;;;;;;;;;;;;;;5041460;28;19950;-77
2024/02/18 14:05:50;;;;;;;;;;;;;;;;;;5046415;28;19929;-74
2024/02/18 14:08:17;;;;;;;;;;;;;;;;;;5043317;28;19929;-79
2024/02/18 14:10:44;;;;;;;;;;;;;;;;;;5051786;28;19936;-79
2024/02/18 14:13:12;;;;;;;;;;;;;;;;;;5048813;28;19955;-76
2024/02/18 14:15:39;;;;;;;;;;;;;;;;;;5050381;28;19928;-80
2024/02/18 14:18:06;;;;;;;;;;;;;;;;;;5049291;28;19967;-76
2024/02/18 14:20:35;;;;;;;;;;;;;;;;;;5042465;28;20599;-75
2024/02/18 14:23:02;;;;;;;;;;;;;;;;;;5047614;28;20019;-74
2024/02/18 14:25:30;;;;;;;;;;;;;;;;;;5047655;28;19939;-76
2024/02/18 14:27:57;;;;;;;;;;;;;;;;;;5030255;28;19936;-76
2024/02/18 14:30:24;;;;;;;;;;;;;;;;;;5044945;28;19928;-76
2024/02/18 14:32:51;;;;;;;;;;;;;;;;;;5047333;28;19951;-76
2024/02/18 14:35:18;;;;;;;;;;;;;;;;;;5047689;28;19929;-74
2024/02/18 14:37:45;;;;;;;;;;;;;;;;;;5051057;28;19935;-72
2024/02/18 14:40:13;;;;;;;;;;;;;;;;;;5046341;28;19995;-72
2024/02/18 14:42:40;;;;;;;;;;;;;;;;;;5048549;28;20295;-71
2024/02/18 14:45:07;;;;;;;;;;;;;;;;;;5043973;28;19935;-72
2024/02/18 14:47:34;;;;;;;;;;;;;;;;;;5039712;28;19929;-73
2024/02/18 14:50:01;;;;;;;;;;;;;;;;;;5041273;28;20075;-72
2024/02/18 14:52:28;;;;;;;;;;;;;;;;;;5048489;28;19982;-73
2024/02/18 14:54:55;;;;;;;;;;;;;;;;;;5049684;28;20466;-73
2024/02/18 14:57:22;;;;;;;;;;;;;;;;;;5046861;28;19933;-72
2024/02/18 14:59:49;;;;;;;;;;;;;;;;;;5036086;28;19933;-73
2024/02/18 15:02:16;;;;;;;;;;;;;;;;;;5042740;28;20019;-73
2024/02/18 15:04:43;;;;;;;;;;;;;;;;;;5039364;28;19936;-72
2024/02/18 15:07:10;;;;;;;;;;;;;;;;;;5047714;28;20271;-72
2024/02/18 15:09:37;;;;;;;;;;;;;;;;;;5046737;28;19964;-75
2024/02/18 15:12:05;;;;;;;;;;;;;;;;;;5050777;28;20447;-71
2024/02/18 15:14:32;;;;;;;;;;;;;;;;;;5042241;28;19928;-70
2024/02/18 15:16:59;;;;;;;;;;;;;;;;;;5045154;28;20016;-71
2024/02/18 15:19:26;;;;;;;;;;;;;;;;;;5048505;28;20407;-72
2024/02/18 15:21:53;;;;;;;;;;;;;;;;;;5033703;28;19932;-73
2024/02/18 15:24:20;;;;;;;;;;;;;;;;;;5045521;28;19933;-73
2024/02/18 15:26:47;;;;;;;;;;;;;;;;;;5048669;28;20016;-73
2024/02/18 15:29:15;;;;;;;;;;;;;;;;;;5050904;28;19986;-73
2024/02/18 15:31:42;;;;;;;;;;;;;;;;;;5045633;28;20011;-72
2024/02/18 15:34:10;;;;;;;;;;;;;;;;;;5040697;28;20017;-73
2024/02/18 15:36:37;;;;;;;;;;;;;;;;;;5040826;28;20019;-72
2024/02/18 15:39:05;;;;;;;;;;;;;;;;;;5041904;28;20378;-74
2024/02/18 15:41:32;;;;;;;;;;;;;;;;;;5049205;28;20011;-73
2024/02/18 15:43:59;;;;;;;;;;;;;;;;;;5043104;28;20020;-72
2024/02/18 15:46:27;;;;;;;;;;;;;;;;;;5042170;28;19932;-72
2024/02/18 15:48:54;;;;;;;;;;;;;;;;;;5043614;28;19932;-72
2024/02/18 15:51:21;;;;;;;;;;;;;;;;;;5042809;28;19935;-72
2024/02/18 15:53:50;;;;;;;;;;;;;;;;;;5048736;28;19968;-73
2024/02/18 15:56:18;;;;;;;;;;;;;;;;;;5038089;28;19929;-72
2024/02/18 15:58:45;;;;;;;;;;;;;;;;;;5046971;28;19956;-73
2024/02/18 16:01:12;;;;;;;;;;;;;;;;;;5050189;28;19929;-72
2024/02/18 16:03:41;;;;;;;;;;;;;;;;;;5046709;28;19980;-73
2024/02/18 16:06:08;;;;;;;;;;;;;;;;;;5052521;28;19936;-75
2024/02/18 16:08:36;;;;;;;;;;;;;;;;;;5049996;28;20016;-71
2024/02/18 16:11:05;;;;;;;;;;;;;;;;;;5038756;28;20303;-71
2024/02/18 16:13:38;;;;;;;;;;;;;;;;;;5041210;28;19979;-74
2024/02/18 16:16:05;;;;;;;;;;;;;;;;;;5049635;28;20021;-73
2024/02/18 16:18:34;;;;;;;;;;;;;;;;;;5049897;28;19928;-71
2024/02/18 16:21:01;;;;;;;;;;;;;;;;;;5044150;28;19928;-74
2024/02/18 16:23:28;;;;;;;;;;;;;;;;;;5042057;28;19929;-73
2024/02/18 16:25:55;;;;;;;;;;;;;;;;;;5048132;28;20015;-71
2024/02/18 16:28:22;;;;;;;;;;;;;;;;;;5040460;28;20544;-73
2024/02/18 16:30:52;;;;;;;;;;;;;;;;;;5039927;28;20682;-74
2024/02/18 16:33:20;;;;;;;;;;;;;;;;;;5048577;28;19929;-74
2024/02/18 16:35:47;;;;;;;;;;;;;;;;;;5038159;28;19933;-73
2024/02/18 16:38:14;;;;;;;;;;;;;;;;;;5044802;28;20019;-72
2024/02/18 16:40:41;;;;;;;;;;;;;;;;;;5036226;28;20023;-74
2024/02/18 16:43:10;;;;;;;;;;;;;;;;;;5059138;28;20007;-75
2024/02/18 16:45:37;;;;;;;;;;;;;;;;;;5049435;28;20031;-73